Time;durP1;ratioP1;P1;durP2;ratioP2;P2;SDS_P1;SDS_P2;PMS_P1;PMS_P2;Temp;Humidity;BMP_temperature;BMP_pressure;BME280_temperature;BME280_humidity;BME280_pressure;Samples;Min_cycle;Max_cycle;Signal;HPM_P1;HPM_P2
2022/10/19 00:01:05;;;;;;;15.18;8.93;;;11.40;70.40;;;;;;5032635;28;20067;-65
2022/10/19 00:03:33;;;;;;;15.18;7.90;;;11.40;70.20;;;;;;5004404;28;20105;-66
2022/10/19 00:06:08;;;;;;;13.80;8.65;;;11.50;70.00;;;;;;5026210;28;20026;-66
2022/10/19 00:08:34;;;;;;;20.85;11.73;;;11.60;70.20;;;;;;5021785;28;20041;-66
2022/10/19 00:11:01;;;;;;;18.85;11.43;;;11.60;70.20;;;;;;5021953;28;20018;-66
2022/10/19 00:13:28;;;;;;;12.60;9.52;;;11.60;70.10;;;;;;5017251;28;20033;-66
2022/10/19 00:15:54;;;;;;;21.48;12.50;;;11.60;70.10;;;;;;5021851;28;20118;-66
2022/10/19 00:18:21;;;;;;;21.70;13.10;;;11.60;70.30;;;;;;5019347;28;20104;-66
2022/10/19 00:20:50;;;;;;;19.42;11.30;;;11.60;70.20;;;;;;5035991;28;20056;-66
2022/10/19 00:23:16;;;;;;;23.83;12.93;;;11.60;70.20;;;;;;5035874;28;20029;-65
2022/10/19 00:25:41;;;;;;;19.05;13.07;;;11.50;70.30;;;;;;5018874;28;20022;-65
2022/10/19 00:28:07;;;;;;;17.13;11.50;;;11.40;70.30;;;;;;5022496;28;20100;-65
2022/10/19 00:30:37;;;;;;;18.55;10.73;;;11.40;70.20;;;;;;5033851;28;20024;-67
2022/10/19 00:33:03;;;;;;;17.98;10.23;;;11.40;69.80;;;;;;5023928;28;20033;-67
2022/10/19 00:35:29;;;;;;;15.73;11.45;;;11.60;69.80;;;;;;5025392;28;20021;-66
2022/10/19 00:37:55;;;;;;;21.77;12.18;;;11.60;70.00;;;;;;5020646;28;20314;-67
2022/10/19 00:40:21;;;;;;;21.00;12.38;;;11.60;70.00;;;;;;5016042;28;20021;-66
2022/10/19 00:42:54;;;;;;;20.33;12.85;;;11.60;70.00;;;;;;5021473;28;20402;-66
2022/10/19 00:45:19;;;;;;;21.63;13.07;;;11.60;70.00;;;;;;5030345;28;20022;-66
2022/10/19 00:47:46;;;;;;;22.33;14.75;;;11.60;70.20;;;;;;5025590;28;20021;-64
2022/10/19 00:50:14;;;;;;;22.17;14.40;;;11.50;70.30;;;;;;5024546;28;20040;-67
2022/10/19 00:52:41;;;;;;;18.10;11.30;;;11.50;70.30;;;;;;5021340;28;20330;-65
2022/10/19 00:55:09;;;;;;;24.80;13.57;;;11.40;70.30;;;;;;5025629;28;20060;-66
2022/10/19 00:57:36;;;;;;;26.95;14.73;;;11.40;70.30;;;;;;5017024;28;20034;-65
2022/10/19 01:00:05;;;;;;;20.45;11.15;;;11.30;70.70;;;;;;5022457;28;20161;-65
2022/10/19 01:02:31;;;;;;;15.95;10.45;;;11.20;70.90;;;;;;5030496;28;20024;-66
2022/10/19 01:04:58;;;;;;;14.55;10.48;;;11.10;70.80;;;;;;5029490;28;20365;-66
2022/10/19 01:07:25;;;;;;;21.23;9.73;;;11.00;70.60;;;;;;5023173;28;20017;-67
2022/10/19 01:09:53;;;;;;;27.02;13.18;;;10.90;70.90;;;;;;5033737;28;20363;-65
2022/10/19 01:12:40;;;;;;;18.55;10.65;;;10.80;70.60;;;;;;5031639;28;20022;-65
2022/10/19 01:15:29;;;;;;;16.85;9.95;;;10.70;70.60;;;;;;5018730;28;20029;-65
2022/10/19 01:18:03;;;;;;;15.95;10.98;;;10.70;70.70;;;;;;5025464;28;20124;-64
2022/10/19 01:20:45;;;;;;;15.75;10.50;;;10.70;70.00;;;;;;5027267;28;20048;-65
2022/10/19 01:23:30;;;;;;;19.05;9.95;;;10.90;69.90;;;;;;5048985;28;20414;-66
2022/10/19 01:26:30;;;;;;;18.40;10.02;;;11.00;69.70;;;;;;5032832;28;20168;-65
2022/10/19 01:29:04;;;;;;;17.50;11.32;;;11.10;69.90;;;;;;5021651;28;20030;-66
2022/10/19 01:31:36;;;;;;;15.98;9.88;;;11.20;70.10;;;;;;5035777;28;20346;-67
2022/10/19 01:34:07;;;;;;;17.85;12.13;;;11.20;70.10;;;;;;5030968;28;20092;-67
2022/10/19 01:36:42;;;;;;;15.93;10.68;;;11.20;70.00;;;;;;5030003;28;20088;-66
2022/10/19 01:39:44;;;;;;;18.33;11.38;;;11.20;69.90;;;;;;5032575;28;20037;-67
2022/10/19 01:42:23;;;;;;;19.77;10.80;;;11.20;70.20;;;;;;5027114;28;20430;-66
2022/10/19 01:44:54;;;;;;;15.25;9.35;;;11.10;70.10;;;;;;5031844;28;20056;-67
2022/10/19 01:47:36;;;;;;;19.67;12.25;;;11.00;70.40;;;;;;5034168;28;20458;-65
2022/10/19 01:50:31;;;;;;;20.95;11.25;;;10.90;70.20;;;;;;5034563;28;20030;-67
2022/10/19 01:52:58;;;;;;;21.25;11.38;;;10.90;70.20;;;;;;5031336;28;20346;-66
2022/10/19 01:55:26;;;;;;;12.90;8.52;;;10.90;70.20;;;;;;5031537;28;20026;-67
2022/10/19 01:58:02;;;;;;;18.25;11.48;;;10.80;70.20;;;;;;5033451;28;20037;-66
2022/10/19 02:00:31;;;;;;;11.32;7.97;;;10.80;69.90;;;;;;5037122;28;20304;-67
2022/10/19 02:02:59;;;;;;;17.52;9.45;;;10.90;69.80;;;;;;5045387;28;20452;-66
2022/10/19 02:05:32;;;;;;;13.63;8.70;;;11.00;69.90;;;;;;5038717;28;20060;-67
2022/10/19 02:08:03;;;;;;;13.65;9.38;;;11.10;70.00;;;;;;5034954;28;20030;-66
2022/10/19 02:10:31;;;;;;;11.13;7.90;;;11.00;70.40;;;;;;5033768;28;20125;-67
2022/10/19 02:12:58;;;;;;;15.10;8.90;;;10.80;70.90;;;;;;5034155;28;20083;-66
2022/10/19 02:15:26;;;;;;;16.55;7.80;;;10.60;70.70;;;;;;5033611;28;20176;-67
2022/10/19 02:17:56;;;;;;;13.50;7.03;;;10.40;71.10;;;;;;5034515;28;20033;-64
2022/10/19 02:20:23;;;;;;;11.32;6.03;;;10.30;71.00;;;;;;5032384;28;20022;-64
2022/10/19 02:22:49;;;;;;;13.45;8.50;;;10.20;70.40;;;;;;5035224;28;20026;-65
2022/10/19 02:25:15;;;;;;;10.02;7.03;;;10.20;70.50;;;;;;5033329;28;20026;-65
2022/10/19 02:27:42;;;;;;;11.90;8.05;;;10.10;70.30;;;;;;5033790;28;20025;-66
2022/10/19 02:30:14;;;;;;;10.00;6.50;;;10.20;70.40;;;;;;5034853;28;20025;-66
2022/10/19 02:32:41;;;;;;;15.20;9.00;;;10.10;70.40;;;;;;5035764;28;20056;-66
2022/10/19 02:35:07;;;;;;;11.52;7.22;;;10.20;70.10;;;;;;5034800;28;20068;-67
2022/10/19 02:37:34;;;;;;;19.90;11.90;;;10.30;69.80;;;;;;5034090;28;20022;-66
2022/10/19 02:40:00;;;;;;;10.18;7.15;;;10.50;69.90;;;;;;5016263;28;20037;-66
2022/10/19 02:42:39;;;;;;;22.75;13.05;;;10.50;70.10;;;;;;5038222;28;20318;-66
2022/10/19 02:45:47;;;;;;;13.50;9.40;;;10.60;70.00;;;;;;5034134;28;20024;-66
2022/10/19 02:48:20;;;;;;;9.88;7.05;;;10.60;70.20;;;;;;5020150;28;20307;-66
2022/10/19 02:50:50;;;;;;;16.27;9.13;;;10.50;70.10;;;;;;5037316;28;20438;-67
2022/10/19 02:53:17;;;;;;;13.13;9.02;;;10.40;70.30;;;;;;5038071;28;20076;-66
2022/10/19 02:55:44;;;;;;;16.30;8.57;;;10.40;70.10;;;;;;5035384;28;20034;-66
2022/10/19 02:58:10;;;;;;;22.30;11.13;;;10.60;69.90;;;;;;5037251;28;20033;-66
2022/10/19 03:00:36;;;;;;;16.80;11.10;;;10.70;70.00;;;;;;5021871;28;20030;-65
2022/10/19 03:03:02;;;;;;;19.15;12.05;;;10.60;70.40;;;;;;5039356;28;20100;-66
2022/10/19 03:05:28;;;;;;;21.63;13.63;;;10.40;70.30;;;;;;5038066;28;20030;-68
2022/10/19 03:07:54;;;;;;;26.55;12.40;;;10.30;70.30;;;;;;5038972;28;20453;-66
2022/10/19 03:10:20;;;;;;;15.95;9.55;;;10.20;70.50;;;;;;5018998;28;20065;-66
2022/10/19 03:12:46;;;;;;;10.57;7.50;;;10.10;70.50;;;;;;5038103;28;20389;-66
2022/10/19 03:15:17;;;;;;;15.68;10.32;;;9.90;70.60;;;;;;5037779;28;20022;-66
2022/10/19 03:17:43;;;;;;;13.10;8.85;;;9.90;70.20;;;;;;5038399;28;20034;-66
2022/10/19 03:20:11;;;;;;;15.02;9.23;;;9.90;69.90;;;;;;5037170;28;20033;-66
2022/10/19 03:22:37;;;;;;;14.95;10.18;;;10.00;70.00;;;;;;5037858;28;20318;-66
2022/10/19 03:25:03;;;;;;;19.50;11.35;;;10.10;70.00;;;;;;5036974;28;20072;-66
2022/10/19 03:27:29;;;;;;;23.10;14.43;;;10.20;69.90;;;;;;5018590;28;20040;-66
2022/10/19 03:29:55;;;;;;;19.63;11.43;;;10.20;70.00;;;;;;5036257;28;20022;-67
2022/10/19 03:32:21;;;;;;;22.77;14.77;;;10.30;70.10;;;;;;5035786;28;20033;-66
2022/10/19 03:34:47;;;;;;;18.85;12.27;;;10.20;70.10;;;;;;5035905;28;20032;-67
2022/10/19 03:37:14;;;;;;;23.70;14.27;;;10.20;70.00;;;;;;5035250;28;20112;-65
2022/10/19 03:39:41;;;;;;;21.30;13.73;;;10.20;70.10;;;;;;5030118;28;20113;-66
2022/10/19 03:42:07;;;;;;;26.27;13.70;;;10.10;70.20;;;;;;5024128;28;20101;-65
2022/10/19 03:44:33;;;;;;;21.38;12.40;;;10.10;70.10;;;;;;5036798;28;20080;-67
2022/10/19 03:47:01;;;;;;;25.65;15.48;;;10.10;70.10;;;;;;5036748;28;20425;-68
2022/10/19 03:49:27;;;;;;;24.00;14.85;;;10.10;69.90;;;;;;5037121;28;20047;-67
2022/10/19 03:51:54;;;;;;;31.17;18.73;;;10.30;69.90;;;;;;5034954;28;20057;-67
2022/10/19 03:54:20;;;;;;;23.05;14.32;;;10.60;70.10;;;;;;5016902;28;20135;-66
2022/10/19 03:56:46;;;;;;;30.88;17.67;;;10.60;70.00;;;;;;5030236;28;20075;-66
2022/10/19 03:59:14;;;;;;;27.27;17.15;;;10.70;70.00;;;;;;5055751;28;20361;-66
2022/10/19 04:01:44;;;;;;;31.45;16.75;;;10.70;70.00;;;;;;5046788;28;20037;-67
2022/10/19 04:04:16;;;;;;;28.77;15.70;;;10.70;70.00;;;;;;5037121;28;20095;-65
2022/10/19 04:06:44;;;;;;;17.27;9.88;;;10.60;70.10;;;;;;5044299;28;20025;-65
2022/10/19 04:09:14;;;;;;;15.85;9.80;;;10.20;71.10;;;;;;5044131;28;20183;-65
2022/10/19 04:11:44;;;;;;;13.38;9.13;;;10.00;70.10;;;;;;5032170;28;20044;-65
2022/10/19 04:14:17;;;;;;;23.02;13.90;;;10.00;69.90;;;;;;5033012;28;20410;-65
2022/10/19 04:16:43;;;;;;;16.58;10.77;;;9.90;70.00;;;;;;5014336;28;20155;-64
2022/10/19 04:19:14;;;;;;;16.35;11.30;;;9.80;70.50;;;;;;5023899;28;20025;-65
2022/10/19 04:21:42;;;;;;;26.52;15.00;;;9.60;70.40;;;;;;5019260;28;20052;-66
2022/10/19 04:24:13;;;;;;;25.17;14.68;;;9.70;69.90;;;;;;5016558;28;20021;-66
2022/10/19 04:26:43;;;;;;;36.33;19.27;;;9.90;70.00;;;;;;5047242;28;20061;-66
2022/10/19 04:29:10;;;;;;;45.75;23.15;;;10.20;70.10;;;;;;5034615;28;20049;-67
2022/10/19 04:31:36;;;;;;;85.18;30.35;;;10.70;70.40;;;;;;5042210;28;20037;-67
2022/10/19 04:34:03;;;;;;;50.20;25.38;;;11.00;70.60;;;;;;5037460;28;20033;-67
2022/10/19 04:36:36;;;;;;;57.60;27.40;;;11.30;70.50;;;;;;5037015;28;20075;-67
2022/10/19 04:39:04;;;;;;;51.95;27.08;;;11.60;70.50;;;;;;5030260;28;20029;-67
2022/10/19 04:41:32;;;;;;;57.00;28.20;;;11.80;70.40;;;;;;5038881;28;20068;-67
2022/10/19 04:44:00;;;;;;;63.72;28.42;;;11.80;70.10;;;;;;5037970;28;20029;-67
2022/10/19 04:46:28;;;;;;;51.78;24.90;;;11.80;69.70;;;;;;5042170;28;20291;-66
2022/10/19 04:48:55;;;;;;;44.97;23.98;;;11.80;69.70;;;;;;5038458;28;20021;-67
2022/10/19 04:51:22;;;;;;;41.97;22.70;;;11.70;69.50;;;;;;5035337;28;20342;-67
2022/10/19 04:53:48;;;;;;;46.10;23.73;;;11.80;69.50;;;;;;5025358;28;20041;-67
2022/10/19 04:56:16;;;;;;;44.63;22.40;;;11.70;69.50;;;;;;5036113;28;20383;-67
2022/10/19 04:58:43;;;;;;;60.28;24.52;;;11.60;69.40;;;;;;5040264;28;20100;-67
2022/10/19 05:01:14;;;;;;;40.67;22.48;;;11.50;69.30;;;;;;5049695;28;20021;-67
2022/10/19 05:03:41;;;;;;;44.67;23.08;;;11.50;69.10;;;;;;5048434;28;20025;-68
2022/10/19 05:06:08;;;;;;;46.60;24.00;;;11.50;69.00;;;;;;5035473;28;20044;-67
2022/10/19 05:08:35;;;;;;;46.92;23.55;;;11.40;69.00;;;;;;5037076;28;20029;-66
2022/10/19 05:11:03;;;;;;;44.67;23.63;;;11.40;68.90;;;;;;5054280;28;20326;-66
2022/10/19 05:13:31;;;;;;;60.42;24.80;;;11.40;68.90;;;;;;5053425;28;20070;-65
2022/10/19 05:15:59;;;;;;;37.08;19.20;;;11.40;69.00;;;;;;5038358;28;20047;-65
2022/10/19 05:18:25;;;;;;;37.72;19.60;;;11.40;68.90;;;;;;5017441;28;20037;-65
2022/10/19 05:20:59;;;;;;;35.90;17.38;;;11.50;69.00;;;;;;5029299;28;20025;-66
2022/10/19 05:23:25;;;;;;;35.67;18.67;;;11.50;69.00;;;;;;5033303;28;20478;-67
2022/10/19 05:25:59;;;;;;;44.78;20.77;;;11.60;69.00;;;;;;5034095;28;20163;-67
2022/10/19 05:28:25;;;;;;;41.00;19.40;;;11.60;69.00;;;;;;5036139;28;20025;-67
2022/10/19 05:30:51;;;;;;;46.95;21.55;;;11.60;69.00;;;;;;5033847;28;20025;-67
2022/10/19 05:33:16;;;;;;;40.72;20.80;;;11.70;69.00;;;;;;5033910;28;20025;-67
2022/10/19 05:35:42;;;;;;;52.55;23.63;;;11.80;68.90;;;;;;5036550;28;20033;-67
2022/10/19 05:38:11;;;;;;;35.92;19.40;;;11.80;68.90;;;;;;5040107;28;20445;-67
2022/10/19 05:40:37;;;;;;;47.25;22.65;;;11.90;68.90;;;;;;5033399;28;20426;-67
2022/10/19 05:43:03;;;;;;;46.17;22.50;;;11.90;68.80;;;;;;5043595;28;20032;-67
2022/10/19 05:45:29;;;;;;;59.50;25.85;;;12.00;68.80;;;;;;5040142;28;20032;-67
2022/10/19 05:47:54;;;;;;;53.90;25.35;;;12.00;68.80;;;;;;5038822;28;20106;-67
2022/10/19 05:50:23;;;;;;;46.03;23.98;;;12.00;68.80;;;;;;5029008;28;20049;-67
2022/10/19 05:52:49;;;;;;;43.95;22.95;;;12.10;68.80;;;;;;5034403;28;20132;-67
2022/10/19 05:55:15;;;;;;;34.67;20.23;;;12.10;68.80;;;;;;5026900;28;20338;-67
2022/10/19 05:57:40;;;;;;;44.35;21.10;;;12.10;68.80;;;;;;5055924;28;20035;-67
2022/10/19 06:00:10;;;;;;;35.40;19.92;;;12.10;68.70;;;;;;5053912;28;20491;-66
2022/10/19 06:02:35;;;;;;;34.60;17.80;;;12.00;68.70;;;;;;5044031;28;20710;-67
2022/10/19 06:05:01;;;;;;;40.92;19.30;;;12.00;68.70;;;;;;5042552;28;20021;-67
2022/10/19 06:07:27;;;;;;;27.17;15.70;;;12.00;68.70;;;;;;5056090;28;20053;-67
2022/10/19 06:09:53;;;;;;;35.15;17.00;;;12.00;68.70;;;;;;5030587;28;20025;-67
2022/10/19 06:12:19;;;;;;;34.95;17.58;;;12.00;68.70;;;;;;5033796;28;20036;-67
2022/10/19 06:14:45;;;;;;;34.53;17.13;;;11.90;68.80;;;;;;5034681;28;20334;-67
2022/10/19 06:17:10;;;;;;;30.60;16.95;;;11.90;68.80;;;;;;5047824;28;20429;-67
2022/10/19 06:19:36;;;;;;;26.27;14.45;;;11.90;68.80;;;;;;5036185;28;20026;-67
2022/10/19 06:22:02;;;;;;;28.88;15.52;;;11.80;68.70;;;;;;5044162;28;20025;-67
2022/10/19 06:24:28;;;;;;;28.60;15.25;;;11.90;68.70;;;;;;5037873;28;20480;-67
2022/10/19 06:26:53;;;;;;;30.52;15.48;;;12.00;68.60;;;;;;5032005;28;20087;-66
2022/10/19 06:29:19;;;;;;;32.28;17.70;;;12.10;68.60;;;;;;5035064;28;20158;-66
2022/10/19 06:31:45;;;;;;;49.78;24.10;;;12.20;68.70;;;;;;5035702;28;20036;-67
2022/10/19 06:34:11;;;;;;;39.53;22.30;;;12.20;68.70;;;;;;5034107;28;20040;-66
2022/10/19 06:36:37;;;;;;;36.58;19.73;;;12.30;68.70;;;;;;5035448;28;20030;-66
2022/10/19 06:39:03;;;;;;;35.97;19.58;;;12.20;68.70;;;;;;5034738;28;20029;-66
2022/10/19 06:41:30;;;;;;;38.05;21.35;;;12.20;68.60;;;;;;5034462;28;20115;-66
2022/10/19 06:43:56;;;;;;;41.17;21.67;;;12.20;68.70;;;;;;5034228;28;20017;-66
2022/10/19 06:46:24;;;;;;;49.20;24.75;;;12.20;68.60;;;;;;5035664;28;20033;-67
2022/10/19 06:48:58;;;;;;;45.72;20.88;;;12.30;68.70;;;;;;5035258;28;20410;-67
2022/10/19 06:51:25;;;;;;;40.35;20.77;;;12.30;68.70;;;;;;5035238;28;20351;-67
2022/10/19 06:53:52;;;;;;;30.50;17.50;;;12.30;68.80;;;;;;5032854;28;20025;-67
2022/10/19 06:56:19;;;;;;;34.40;17.92;;;12.30;68.60;;;;;;5016868;28;20357;-67
2022/10/19 06:58:45;;;;;;;26.73;15.55;;;12.40;68.60;;;;;;5042339;28;20025;-67
2022/10/19 07:01:12;;;;;;;41.05;20.05;;;12.50;68.50;;;;;;5055542;28;20047;-67
2022/10/19 07:03:39;;;;;;;34.03;18.85;;;12.60;68.50;;;;;;5045677;28;20025;-67
2022/10/19 07:06:07;;;;;;;30.60;17.92;;;12.60;68.50;;;;;;5035628;28;20017;-67
2022/10/19 07:08:34;;;;;;;43.08;21.50;;;12.80;68.50;;;;;;5040289;28;20108;-68
2022/10/19 07:11:04;;;;;;;28.23;18.38;;;12.70;68.50;;;;;;5052805;28;20025;-67
2022/10/19 07:13:30;;;;;;;41.05;21.90;;;12.70;68.50;;;;;;5017135;28;20155;-67
2022/10/19 07:16:02;;;;;;;33.97;20.30;;;12.80;68.40;;;;;;5035350;28;20109;-67
2022/10/19 07:18:28;;;;;;;42.75;22.42;;;12.90;68.50;;;;;;5034712;28;20029;-67
2022/10/19 07:20:58;;;;;;;46.22;24.63;;;13.00;68.50;;;;;;5035363;28;20060;-67
2022/10/19 07:23:26;;;;;;;44.30;23.48;;;13.20;68.40;;;;;;5032932;28;20032;-67
2022/10/19 07:25:54;;;;;;;34.78;21.52;;;13.10;68.50;;;;;;5033840;28;20029;-68
2022/10/19 07:28:21;;;;;;;32.38;20.10;;;13.20;68.30;;;;;;5038845;28;20044;-68
2022/10/19 07:30:47;;;;;;;21.58;13.20;;;13.30;68.30;;;;;;5058932;28;20087;-67
2022/10/19 07:33:13;;;;;;;21.98;12.77;;;13.50;68.40;;;;;;5038012;28;20075;-66
2022/10/19 07:35:39;;;;;;;18.88;10.43;;;13.50;68.40;;;;;;5038503;28;20040;-67
2022/10/19 07:38:04;;;;;;;23.90;14.75;;;13.50;68.20;;;;;;5036926;28;20109;-67
2022/10/19 07:40:30;;;;;;;28.08;16.50;;;13.70;68.40;;;;;;5036656;28;20028;-67
2022/10/19 07:42:56;;;;;;;37.08;19.77;;;13.70;69.40;;;;;;5041363;28;20032;-67
2022/10/19 07:45:22;;;;;;;28.80;18.00;;;13.60;69.60;;;;;;5058812;28;20414;-67
2022/10/19 07:47:48;;;;;;;29.00;16.70;;;13.50;69.50;;;;;;5046625;28;20040;-67
2022/10/19 07:50:14;;;;;;;28.30;16.52;;;13.60;69.00;;;;;;5038573;28;20021;-66
2022/10/19 07:52:40;;;;;;;22.73;14.13;;;13.70;69.50;;;;;;5038051;28;20445;-67
2022/10/19 07:55:06;;;;;;;22.15;14.57;;;13.70;69.90;;;;;;5047882;28;20029;-67
2022/10/19 07:57:32;;;;;;;22.15;13.98;;;13.80;70.50;;;;;;5045329;28;20041;-67
2022/10/19 07:59:57;;;;;;;23.90;14.93;;;13.90;70.90;;;;;;5038142;28;20441;-67
2022/10/19 08:02:23;;;;;;;23.08;14.63;;;13.80;72.10;;;;;;5037372;28;20093;-67
2022/10/19 08:04:49;;;;;;;18.73;12.90;;;13.90;72.90;;;;;;5038400;28;20026;-67
2022/10/19 08:07:17;;;;;;;16.20;11.15;;;14.10;72.80;;;;;;5036683;28;20021;-65
2022/10/19 08:09:43;;;;;;;14.35;8.55;;;14.50;72.30;;;;;;5038453;28;20036;-65
2022/10/19 08:12:09;;;;;;;12.63;8.13;;;14.80;73.40;;;;;;5047162;28;20025;-65
2022/10/19 08:14:34;;;;;;;11.30;8.45;;;14.80;80.50;;;;;;5058194;28;20039;-65
2022/10/19 08:17:03;;;;;;;15.40;8.18;;;14.90;84.00;;;;;;5044959;28;20115;-65
2022/10/19 08:19:31;;;;;;;13.15;8.23;;;15.00;84.10;;;;;;5037235;28;20422;-67
2022/10/19 08:21:57;;;;;;;13.75;7.30;;;14.90;86.60;;;;;;5038118;28;20437;-68
2022/10/19 08:24:22;;;;;;;9.73;6.38;;;15.10;87.70;;;;;;5036902;28;20026;-67
2022/10/19 08:26:50;;;;;;;11.10;6.68;;;15.20;89.40;;;;;;5035144;28;20418;-67
2022/10/19 08:29:19;;;;;;;10.00;5.40;;;15.50;90.90;;;;;;5036401;28;20031;-67
2022/10/19 08:31:47;;;;;;;8.38;5.47;;;15.70;92.30;;;;;;5037892;28;20104;-67
2022/10/19 08:34:13;;;;;;;7.97;4.55;;;15.70;96.80;;;;;;5037177;28;20322;-67
2022/10/19 08:36:42;;;;;;;7.70;4.95;;;15.60;93.70;;;;;;5037838;28;20042;-67
2022/10/19 08:39:11;;;;;;;6.95;4.50;;;15.70;96.20;;;;;;5036283;28;20032;-67
2022/10/19 08:41:39;;;;;;;9.02;4.90;;;15.90;97.20;;;;;;5036690;28;20325;-67
2022/10/19 08:44:14;;;;;;;6.05;4.20;;;16.20;97.30;;;;;;5039114;28;20318;-67
2022/10/19 08:47:21;;;;;;;8.32;4.13;;;16.30;98.00;;;;;;5036268;28;20033;-67
2022/10/19 08:49:47;;;;;;;7.82;4.30;;;16.30;98.00;;;;;;5017740;28;20034;-67
2022/10/19 08:52:17;;;;;;;6.95;4.20;;;16.20;98.00;;;;;;5017644;28;20126;-67
2022/10/19 08:54:51;;;;;;;8.05;5.43;;;16.40;98.00;;;;;;5035949;28;20052;-68
2022/10/19 08:57:38;;;;;;;12.98;6.38;;;16.70;98.00;;;;;;5036619;28;20044;-68
2022/10/19 09:00:16;;;;;;;9.40;5.38;;;16.90;98.00;;;;;;5017720;28;20109;-67
2022/10/19 09:03:02;;;;;;;10.95;5.72;;;17.20;98.00;;;;;;5028359;28;20022;-67
2022/10/19 09:05:37;;;;;;;8.45;5.50;;;17.20;98.00;;;;;;5035175;28;20084;-67
2022/10/19 09:08:03;;;;;;;9.23;5.47;;;17.10;98.00;;;;;;5039479;28;20020;-67
2022/10/19 09:10:33;;;;;;;15.35;5.68;;;16.80;98.00;;;;;;5056024;28;20115;-67
2022/10/19 09:13:09;;;;;;;6.72;4.13;;;16.70;98.00;;;;;;5052132;28;20453;-67
2022/10/19 09:15:41;;;;;;;5.43;3.10;;;16.80;98.00;;;;;;5035777;28;20034;-67
2022/10/19 09:18:17;;;;;;;4.30;2.53;;;17.10;98.00;;;;;;5039374;28;20056;-67
2022/10/19 09:20:47;;;;;;;5.07;2.90;;;17.30;98.00;;;;;;5056134;28;20014;-66
2022/10/19 09:23:21;;;;;;;10.63;3.45;;;17.60;98.00;;;;;;5033485;28;20029;-67
2022/10/19 09:25:49;;;;;;;;;;;17.60;97.90;;;;;;5034036;28;20021;-66
2022/10/19 09:29:09;;;;;;;5.32;3.10;;;17.40;98.00;;;;;;5056063;28;19909;-67
2022/10/19 09:31:41;;;;;;;5.38;3.15;;;17.10;98.00;;;;;;5025143;28;20049;-67
2022/10/19 09:34:15;;;;;;;10.50;3.13;;;17.00;98.00;;;;;;5034690;28;20030;-66
2022/10/19 09:36:44;;;;;;;5.68;3.58;;;17.00;98.00;;;;;;5041159;28;20128;-67
2022/10/19 09:39:12;;;;;;;5.28;3.30;;;17.10;98.00;;;;;;5056708;28;20039;-67
2022/10/19 09:41:54;;;;;;;5.65;3.28;;;17.10;98.00;;;;;;5048944;28;20468;-67
2022/10/19 09:44:21;;;;;;;8.52;4.25;;;17.40;98.00;;;;;;5033734;28;20112;-67
2022/10/19 09:47:05;;;;;;;8.43;4.10;;;17.40;98.00;;;;;;5040154;28;20036;-67
2022/10/19 09:49:38;;;;;;;;;;;17.70;98.00;;;;;;5056716;28;20074;-67
2022/10/19 09:52:04;;;;;;;10.02;3.92;;;18.00;97.00;;;;;;5050545;28;19959;-67
2022/10/19 09:54:35;;;;;;;7.07;3.95;;;18.00;97.00;;;;;;5034876;28;20052;-67
2022/10/19 09:57:02;;;;;;;5.97;2.97;;;18.40;95.60;;;;;;5039724;28;20025;-67
2022/10/19 09:59:33;;;;;;;9.63;3.42;;;18.50;95.80;;;;;;5056088;28;20289;-67
2022/10/19 10:02:17;;;;;;;7.75;3.25;;;18.50;95.60;;;;;;5035623;28;20325;-67
2022/10/19 10:05:05;;;;;;;6.95;3.90;;;18.60;95.00;;;;;;5051302;28;20025;-67
2022/10/19 10:07:38;;;;;;;5.60;3.47;;;18.80;94.50;;;;;;5056063;28;20063;-67
2022/10/19 10:10:29;;;;;;;6.60;4.03;;;18.90;93.80;;;;;;5034742;28;20052;-67
2022/10/19 10:12:58;;;;;;;5.35;3.45;;;18.60;94.40;;;;;;5035097;28;20029;-67
2022/10/19 10:15:26;;;;;;;9.18;3.53;;;18.50;94.90;;;;;;5039884;28;20057;-67
2022/10/19 10:17:54;;;;;;;7.32;3.58;;;18.90;94.60;;;;;;5035356;28;20168;-67
2022/10/19 10:20:31;;;;;;;5.45;3.15;;;19.00;93.10;;;;;;5035101;28;20026;-67
2022/10/19 10:23:02;;;;;;;5.93;3.60;;;18.80;93.50;;;;;;5033300;28;20031;-66
2022/10/19 10:25:34;;;;;;;5.43;3.08;;;19.10;93.50;;;;;;5033329;28;20034;-67
2022/10/19 10:28:02;;;;;;;5.40;3.17;;;19.10;93.30;;;;;;5034982;28;20061;-67
2022/10/19 10:30:32;;;;;;;4.80;2.90;;;19.40;91.90;;;;;;5037698;28;20112;-67
2022/10/19 10:32:58;;;;;;;5.55;2.90;;;20.20;90.60;;;;;;5034863;28;20029;-67
2022/10/19 10:35:34;;;;;;;5.95;2.90;;;20.60;88.20;;;;;;5045744;28;20068;-67
2022/10/19 10:38:34;;;;;;;5.78;3.38;;;20.40;89.40;;;;;;5035503;28;20026;-67
2022/10/19 10:41:06;;;;;;;4.03;2.45;;;19.90;90.40;;;;;;4991173;28;20038;-67
2022/10/19 10:43:34;;;;;;;6.35;2.55;;;20.50;90.50;;;;;;5027701;28;20028;-67
2022/10/19 10:46:13;;;;;;;4.68;2.58;;;20.90;88.90;;;;;;5045542;28;20033;-66
2022/10/19 10:48:43;;;;;;;4.28;2.58;;;21.30;87.30;;;;;;5052340;28;20067;-67
2022/10/19 10:51:19;;;;;;;6.53;2.97;;;21.20;86.30;;;;;;5045228;28;20426;-66
2022/10/19 10:53:47;;;;;;;7.25;3.40;;;20.90;86.70;;;;;;5034487;28;20033;-66
2022/10/19 10:56:23;;;;;;;6.88;3.05;;;20.20;89.10;;;;;;5034121;28;20033;-66
2022/10/19 10:59:03;;;;;;;6.50;3.33;;;19.90;90.00;;;;;;5050176;28;20027;-65
2022/10/19 11:01:38;;;;;;;5.93;3.10;;;19.50;90.50;;;;;;5055661;28;20025;-64
2022/10/19 11:04:10;;;;;;;4.47;2.70;;;19.50;91.30;;;;;;5038779;28;20049;-65
2022/10/19 11:06:43;;;;;;;6.53;3.58;;;20.00;90.80;;;;;;5039651;28;20029;-65
2022/10/19 11:09:43;;;;;;;5.60;3.38;;;20.50;88.90;;;;;;5049239;28;20099;-64
2022/10/19 11:12:15;;;;;;;5.20;2.95;;;20.60;87.60;;;;;;5004713;28;20033;-67
2022/10/19 11:15:21;;;;;;;11.32;3.70;;;20.80;88.10;;;;;;5036685;28;20092;-68
2022/10/19 11:17:59;;;;;;;5.10;3.10;;;21.40;87.60;;;;;;5037961;28;20508;-66
2022/10/19 11:20:29;;;;;;;10.02;3.78;;;22.00;85.00;;;;;;5019455;28;20033;-67
2022/10/19 11:23:13;;;;;;;7.63;3.75;;;22.60;83.10;;;;;;5027854;28;20021;-66
2022/10/19 11:25:38;;;;;;;;;;;22.80;82.20;;;;;;5038592;28;20052;-67
2022/10/19 11:28:07;;;;;;;7.05;4.40;;;22.80;81.60;;;;;;5045969;28;19948;-67
2022/10/19 11:30:57;;;;;;;6.65;3.63;;;22.00;82.30;;;;;;5059081;28;20025;-67
2022/10/19 11:33:39;;;;;;;8.40;3.53;;;21.60;85.30;;;;;;5046279;28;20376;-67
2022/10/19 11:36:49;;;;;;;6.13;3.97;;;21.80;84.50;;;;;;5036012;28;20025;-66
2022/10/19 11:39:39;;;;;;;10.15;4.70;;;21.30;84.50;;;;;;4975387;28;20042;-65
2022/10/19 11:42:17;;;;;;;6.93;4.47;;;20.60;86.80;;;;;;5021934;28;20029;-66
2022/10/19 11:45:31;;;;;;;6.43;4.55;;;20.10;88.10;;;;;;5031273;28;20410;-67
2022/10/19 11:48:24;;;;;;;8.63;4.88;;;19.80;88.50;;;;;;5015429;28;20133;-66
2022/10/19 11:51:14;;;;;;;7.50;5.18;;;19.50;89.40;;;;;;5030253;28;20112;-66
2022/10/19 11:54:00;;;;;;;8.30;5.63;;;19.40;89.90;;;;;;5038354;28;20048;-67
2022/10/19 11:56:47;;;;;;;9.07;6.75;;;19.40;90.50;;;;;;5030845;28;20113;-67
2022/10/19 11:59:31;;;;;;;10.18;5.88;;;19.50;89.90;;;;;;5058544;28;20402;-66
2022/10/19 12:02:25;;;;;;;12.35;7.07;;;19.30;90.80;;;;;;5048804;28;20021;-66
2022/10/19 12:05:07;;;;;;;10.55;7.28;;;18.90;92.00;;;;;;5018589;28;20030;-67
2022/10/19 12:08:03;;;;;;;11.60;8.13;;;18.90;93.10;;;;;;5047406;28;20311;-66
2022/10/19 12:10:59;;;;;;;14.38;8.43;;;18.80;92.50;;;;;;5050975;28;20033;-66
2022/10/19 12:13:36;;;;;;;17.40;8.85;;;18.60;93.20;;;;;;5043540;28;20025;-66
2022/10/19 12:16:03;;;;;;;11.07;8.00;;;18.60;93.60;;;;;;5039665;28;20030;-66
2022/10/19 12:18:41;;;;;;;11.50;8.10;;;18.60;93.60;;;;;;5057947;28;20425;-66
2022/10/19 12:21:22;;;;;;;13.80;8.50;;;18.40;93.40;;;;;;5046466;28;20080;-66
2022/10/19 12:23:49;;;;;;;17.65;8.63;;;18.30;93.60;;;;;;5041043;28;20033;-66
2022/10/19 12:26:16;;;;;;;13.75;8.07;;;18.10;94.00;;;;;;5046538;28;20037;-66
2022/10/19 12:29:05;;;;;;;14.23;8.55;;;18.10;94.70;;;;;;5057980;28;20088;-66
2022/10/19 12:31:32;;;;;;;14.70;9.10;;;18.20;94.00;;;;;;5046464;28;20021;-66
2022/10/19 12:34:08;;;;;;;16.55;9.98;;;18.10;94.40;;;;;;5057796;28;20119;-66
2022/10/19 12:36:53;;;;;;;16.52;10.52;;;18.00;94.50;;;;;;5056177;28;20025;-66
2022/10/19 12:39:49;;;;;;;14.18;9.07;;;18.00;94.20;;;;;;5057727;28;20028;-66
2022/10/19 12:42:33;;;;;;;16.63;10.35;;;17.90;94.70;;;;;;5045756;28;20292;-65
2022/10/19 12:44:59;;;;;;;;;;;17.80;94.80;;;;;;5058264;28;20302;-66
2022/10/19 12:47:25;;;;;;;14.35;8.70;;;17.60;95.20;;;;;;5055802;28;19915;-67
2022/10/19 12:49:54;;;;;;;15.35;9.20;;;17.60;95.90;;;;;;5057549;28;20025;-66
2022/10/19 12:52:40;;;;;;;18.10;10.13;;;17.40;95.80;;;;;;5041013;28;20044;-66
2022/10/19 12:55:15;;;;;;;20.15;11.20;;;17.20;96.10;;;;;;5036080;28;20132;-66
2022/10/19 12:57:55;;;;;;;18.35;11.60;;;17.00;96.10;;;;;;5041019;28;20064;-66